Encruzilhada, Brazil
Current Conditions -  °F | °C
As of 11:35 PM on Thursday 30 Oct 2014 (Local Time) from SBQV Reporting Station
Few Clouds Few Clouds  
Wind Chill: 19°   Ceiling: Unl
Heat Index: 19°   Visibility: 6mi
Dew Point: 18°   Wind: 7mph
Humidity: 94%   Direction: 80°E
Pressure: 30.12"   Gusts: NA
Location:  15.53°S, 40.91°W
Report Text: SBQV 310235Z 08006KT 9999 FEW006 19/18 Q1020
Loading
Personal Weather Stations






























Interactive Weather Map
Tropical Storm Tracking
New forecast layout! Learn more

10-Day Weather Forecast

Advertisements
Track Severe Weather on mobile